createdAt,value
2018-11-05T00:00:00.411Z,45.1
2018-11-05T00:00:51.258Z,45.1
2018-11-05T00:01:41.365Z,45.1
2018-11-05T00:02:31.950Z,45.1
2018-11-05T00:03:21.648Z,45.1
2018-11-05T00:04:11.252Z,45.1
2018-11-05T00:05:01.747Z,45.1
2018-11-05T00:05:52.192Z,45.1
2018-11-05T00:06:41.900Z,45
2018-11-05T00:24:57.273Z,44.9
2018-11-05T00:25:46.846Z,44.9
2018-11-05T00:26:36.916Z,44.9
2018-11-05T00:27:27.288Z,44.9
2018-11-05T00:28:17.615Z,44.9
2018-11-05T00:29:07.663Z,44.9
2018-11-05T00:29:57.481Z,44.9
2018-11-05T00:30:48.063Z,44.9
2018-11-05T00:31:37.138Z,44.9
2018-11-05T00:32:28.446Z,44.8
2018-11-05T00:33:16.896Z,44.9
2018-11-05T00:34:07.455Z,44.9
2018-11-05T00:34:57.315Z,44.8
2018-11-05T00:35:47.250Z,44.8
2018-11-05T00:36:37.711Z,44.8
2018-11-05T00:37:27.421Z,44.8
2018-11-05T00:38:18.363Z,44.8
2018-11-05T00:39:07.879Z,44.8
2018-11-05T00:39:58.442Z,44.8
2018-11-05T00:40:49.077Z,44.8
2018-11-05T00:41:38.141Z,44.8
2018-11-05T00:42:28.600Z,44.8
2018-11-05T00:43:18.663Z,44.8
2018-11-05T00:44:07.555Z,44.8
2018-11-05T00:44:58.804Z,44.8
2018-11-05T00:45:50.470Z,44.8
2018-11-05T00:46:39.020Z,44.8
2018-11-05T00:47:29.527Z,44.8
2018-11-05T00:48:19.010Z,44.8
2018-11-05T00:49:09.119Z,44.8
2018-11-05T00:49:59.420Z,44.8
2018-11-05T00:50:48.756Z,44.8
2018-11-05T00:51:39.591Z,44.8
2018-11-05T00:52:29.316Z,44.8
2018-11-05T00:53:18.638Z,44.7
2018-11-05T00:54:09.305Z,44.8
2018-11-05T00:54:59.247Z,44.7
2018-11-05T00:55:49.682Z,44.8
2018-11-05T00:56:39.379Z,44.7
2018-11-05T00:57:30.514Z,44.7
2018-11-05T00:58:19.296Z,44.7
2018-11-05T00:59:09.161Z,44.7
2018-11-05T00:59:59.611Z,44.7
2018-11-05T01:00:49.369Z,44.7
2018-11-05T01:01:39.974Z,44.7
2018-11-05T01:02:29.829Z,44.6
2018-11-05T01:03:19.356Z,44.6
2018-11-05T01:04:09.668Z,44.6
2018-11-05T01:05:00.791Z,44.6
2018-11-05T01:05:49.728Z,44.7
2018-11-05T01:06:40.119Z,44.6
2018-11-05T01:07:30.223Z,44.6
2018-11-05T01:08:20.480Z,44.6
2018-11-05T01:09:10.569Z,44.6
2018-11-05T01:10:15.029Z,44.6
2018-11-05T01:10:50.985Z,44.6
2018-11-05T01:11:41.010Z,44.6
2018-11-05T01:12:30.844Z,44.6
2018-11-05T01:13:20.858Z,44.6
2018-11-05T01:14:10.353Z,44.6
2018-11-05T01:15:01.052Z,44.6
2018-11-05T01:15:51.073Z,44.6
2018-11-05T01:16:41.381Z,44.6
2018-11-05T01:17:30.569Z,44.6
2018-11-05T01:18:21.333Z,44.6
2018-11-05T01:19:12.020Z,44.6
2018-11-05T01:20:01.015Z,44.6
2018-11-05T01:20:51.001Z,44.6
2018-11-05T01:21:41.471Z,44.5
2018-11-05T01:22:31.360Z,44.6
2018-11-05T01:23:21.686Z,44.5
2018-11-05T01:24:11.672Z,44.6
2018-11-05T01:25:01.161Z,44.5
2018-11-05T01:25:52.285Z,44.5
2018-11-05T01:26:41.366Z,44.5
2018-11-05T01:27:31.619Z,44.5
2018-11-05T01:28:21.678Z,44.5
2018-11-05T01:29:11.548Z,44.5
2018-11-05T01:30:01.883Z,44.5
2018-11-05T01:30:52.415Z,44.5
2018-11-05T01:31:42.483Z,44.5
2018-11-05T01:32:31.992Z,44.5
2018-11-05T01:33:21.605Z,44.4
2018-11-05T01:34:11.850Z,44.4
2018-11-05T01:35:01.597Z,44.4
2018-11-05T01:35:53.048Z,44.4
2018-11-05T01:36:41.997Z,44.4
2018-11-05T01:37:31.776Z,44.4
2018-11-05T01:38:23.242Z,44.4
2018-11-05T01:39:12.451Z,44.4
2018-11-05T01:40:03.097Z,44.4
2018-11-05T01:40:52.882Z,44.4
2018-11-05T01:41:42.368Z,44.4
2018-11-05T01:42:32.530Z,44.4
2018-11-05T01:43:22.016Z,44.4
2018-11-05T01:44:13.113Z,44.4
2018-11-05T01:45:02.204Z,44.4
2018-11-05T01:45:53.525Z,44.4
2018-11-05T01:46:42.801Z,44.4
2018-11-05T01:47:33.091Z,44.4
2018-11-05T01:48:22.874Z,44.4
2018-11-05T01:49:13.214Z,44.4
2018-11-05T01:50:02.858Z,44.4
2018-11-05T01:50:53.143Z,44.4
2018-11-05T01:51:43.958Z,44.3
2018-11-05T01:52:33.783Z,44.4
2018-11-05T01:53:23.315Z,44.3
2018-11-05T01:54:13.858Z,44.3
2018-11-05T01:55:03.128Z,44.3
2018-11-05T01:55:53.960Z,44.3
2018-11-05T01:56:44.315Z,44.3
2018-11-05T01:57:33.242Z,44.3
2018-11-05T01:58:24.725Z,44.3
2018-11-05T01:59:14.463Z,44.3
2018-11-05T02:00:04.015Z,44.3
2018-11-05T02:00:54.079Z,44.3
2018-11-05T02:01:44.385Z,44.3
2018-11-05T02:02:34.329Z,44.3
2018-11-05T02:03:24.348Z,44.3
2018-11-05T02:04:14.369Z,44.3
2018-11-05T02:05:04.470Z,44.3
2018-11-05T02:05:54.994Z,44.3
2018-11-05T02:06:44.832Z,44.3
2018-11-05T02:07:34.241Z,44.3
2018-11-05T02:08:24.570Z,44.3
2018-11-05T02:09:13.882Z,44.3
2018-11-05T02:10:04.943Z,44.3
2018-11-05T02:10:54.655Z,44.2
2018-11-05T02:11:45.661Z,44.2
2018-11-05T02:12:35.721Z,44.2
2018-11-05T02:13:26.157Z,44.2
2018-11-05T02:14:14.724Z,44.3
2018-11-05T02:15:05.675Z,44.2
2018-11-05T02:15:56.351Z,44.2
2018-11-05T02:16:45.489Z,44.2
2018-11-05T02:17:34.591Z,44.2
2018-11-05T02:18:24.567Z,44.2
2018-11-05T02:19:15.516Z,44.2
2018-11-05T02:20:05.890Z,44.2
2018-11-05T02:20:55.334Z,44.2
2018-11-05T02:21:44.881Z,44.1
2018-11-05T02:22:35.948Z,44.2
2018-11-05T02:23:25.225Z,44.1
2018-11-05T02:24:16.326Z,44.1
2018-11-05T02:25:05.649Z,44.1
2018-11-05T02:25:54.806Z,44.1
2018-11-05T02:26:46.296Z,44.1
2018-11-05T02:27:34.156Z,44.1
2018-11-05T02:28:25.641Z,44.1
2018-11-05T02:29:15.612Z,44.1
2018-11-05T02:30:05.966Z,44.1
2018-11-05T02:30:56.283Z,44.1
2018-11-05T02:31:46.391Z,44.1
2018-11-05T02:32:36.430Z,44.1
2018-11-05T02:33:25.376Z,44.1
2018-11-05T02:34:16.878Z,44.1
2018-11-05T02:35:06.361Z,44.1
2018-11-05T02:35:56.113Z,44.1
2018-11-05T02:36:46.771Z,44.1
2018-11-05T02:37:36.483Z,44.1
2018-11-05T02:38:26.282Z,44.1
2018-11-05T02:39:16.623Z,44.1
2018-11-05T02:40:06.990Z,44.1
2018-11-05T02:40:56.821Z,44
2018-11-05T02:41:46.729Z,44
2018-11-05T02:42:36.628Z,44.1
2018-11-05T02:43:27.593Z,44
2018-11-05T02:44:17.618Z,44
2018-11-05T02:45:07.055Z,44
2018-11-05T02:45:57.468Z,44
2018-11-05T02:46:47.174Z,44
2018-11-05T02:47:37.555Z,44
2018-11-05T02:48:27.378Z,44
2018-11-05T02:49:17.392Z,44
2018-11-05T02:50:07.547Z,44
2018-11-05T02:50:56.869Z,44
2018-11-05T02:51:47.385Z,43.9
2018-11-05T02:52:37.358Z,44
2018-11-05T02:53:28.231Z,43.9
2018-11-05T02:54:17.479Z,43.9
2018-11-05T02:55:07.620Z,43.9
2018-11-05T02:55:57.567Z,43.9
2018-11-05T02:56:48.525Z,43.9
2018-11-05T02:57:37.996Z,43.9
2018-11-05T02:58:28.339Z,43.9
2018-11-05T02:59:18.445Z,43.9
2018-11-05T03:00:07.590Z,43.9
2018-11-05T03:00:58.801Z,43.9
2018-11-05T03:01:47.627Z,43.9
2018-11-05T03:02:38.094Z,43.9
2018-11-05T03:03:29.238Z,43.9
2018-11-05T03:04:18.047Z,43.9
2018-11-05T03:05:09.344Z,43.9
2018-11-05T03:05:58.502Z,43.9
2018-11-05T03:06:48.502Z,43.9
2018-11-05T03:07:38.733Z,43.9
2018-11-05T03:08:28.963Z,43.9
2018-11-05T03:09:19.119Z,43.9
2018-11-05T03:10:09.223Z,43.8
2018-11-05T03:10:58.739Z,43.9
2018-11-05T03:11:49.389Z,43.8
2018-11-05T03:12:39.293Z,43.8
2018-11-05T03:13:29.654Z,43.8
2018-11-05T03:14:19.511Z,43.8
2018-11-05T03:15:09.818Z,43.9
2018-11-05T03:15:59.033Z,43.8
2018-11-05T03:16:49.696Z,43.8
2018-11-05T03:17:39.709Z,43.8
2018-11-05T03:18:30.102Z,43.8
2018-11-05T03:19:19.371Z,43.8
2018-11-05T03:20:09.850Z,43.8
2018-11-05T03:21:00.370Z,43.8
2018-11-05T03:21:50.821Z,43.8
2018-11-05T03:22:39.738Z,43.8
2018-11-05T03:23:30.622Z,43.8
2018-11-05T03:24:20.090Z,43.8
2018-11-05T03:25:10.194Z,43.8
2018-11-05T03:26:00.630Z,43.8
2018-11-05T03:26:50.677Z,43.8
2018-11-05T03:27:40.668Z,43.8
2018-11-05T03:28:31.293Z,43.8
2018-11-05T03:29:20.226Z,43.8
2018-11-05T03:30:11.575Z,43.8
2018-11-05T03:31:00.912Z,43.8
2018-11-05T03:31:50.922Z,43.7
2018-11-05T03:32:41.463Z,43.7
2018-11-05T03:33:30.805Z,43.7
2018-11-05T03:34:20.876Z,43.8
2018-11-05T03:35:11.256Z,43.7
2018-11-05T03:36:02.376Z,43.7
2018-11-05T03:36:51.790Z,43.7
2018-11-05T03:37:41.432Z,43.7
2018-11-05T03:38:31.478Z,43.7
2018-11-05T03:39:21.828Z,43.7
2018-11-05T03:40:11.615Z,43.7
2018-11-05T03:41:00.955Z,43.7
2018-11-05T03:41:51.949Z,43.7
2018-11-05T03:42:41.560Z,43.7
2018-11-05T03:43:31.567Z,43.7
2018-11-05T03:44:22.139Z,43.6
2018-11-05T03:45:11.649Z,43.6
2018-11-05T03:46:02.312Z,43.6
2018-11-05T03:46:52.335Z,43.6
2018-11-05T03:47:41.525Z,43.6
2018-11-05T03:48:31.920Z,43.6
2018-11-05T03:49:21.884Z,43.6
2018-11-05T03:50:12.310Z,43.6
2018-11-05T03:51:01.832Z,43.6
2018-11-05T03:51:52.189Z,43.6
2018-11-05T03:52:42.175Z,43.6
2018-11-05T03:53:31.328Z,43.6
2018-11-05T03:54:22.068Z,43.6
2018-11-05T03:55:12.694Z,43.6
2018-11-05T03:56:04.259Z,43.6
2018-11-05T03:56:52.821Z,43.6
2018-11-05T03:57:42.844Z,43.6
2018-11-05T03:58:32.140Z,43.6
2018-11-05T03:59:22.713Z,43.6
2018-11-05T04:00:13.865Z,43.6
2018-11-05T04:01:03.106Z,43.6
2018-11-05T04:01:53.201Z,43.6
2018-11-05T04:02:43.244Z,43.6
2018-11-05T04:03:33.275Z,43.5
2018-11-05T04:04:23.341Z,43.5
2018-11-05T04:05:13.656Z,43.5
2018-11-05T04:06:03.728Z,43.5
2018-11-05T04:06:54.353Z,43.5
2018-11-05T04:07:42.726Z,43.5
2018-11-05T04:08:33.522Z,43.5
2018-11-05T04:09:22.851Z,43.5
2018-11-05T04:10:12.909Z,43.5
2018-11-05T04:11:04.278Z,43.5
2018-11-05T04:11:53.321Z,43.5
2018-11-05T04:12:44.215Z,43.4
2018-11-05T04:13:33.805Z,43.4
2018-11-05T04:14:23.810Z,43.4
2018-11-05T04:15:14.544Z,43.4
2018-11-05T04:16:05.703Z,43.4
2018-11-05T04:16:54.567Z,43.4
2018-11-05T04:17:44.365Z,43.4
2018-11-05T04:18:33.355Z,43.4
2018-11-05T04:19:23.845Z,43.4
2018-11-05T04:20:14.779Z,43.4
2018-11-05T04:21:04.265Z,43.4
2018-11-05T04:21:53.840Z,43.4
2018-11-05T04:22:44.980Z,43.4
2018-11-05T04:23:35.028Z,43.4
2018-11-05T04:24:24.795Z,43.4
2018-11-05T04:25:14.077Z,43.4
2018-11-05T04:26:04.665Z,43.4
2018-11-05T04:26:54.705Z,43.4
2018-11-05T04:27:46.638Z,43.4
2018-11-05T04:28:35.394Z,43.4
2018-11-05T04:29:25.469Z,43.4
2018-11-05T04:30:15.212Z,43.4
2018-11-05T04:31:05.090Z,43.3
2018-11-05T04:31:54.282Z,43.4
2018-11-05T04:32:45.469Z,43.4
2018-11-05T04:33:35.572Z,43.4
2018-11-05T04:34:25.434Z,43.3
2018-11-05T04:35:15.322Z,43.3
2018-11-05T04:36:05.354Z,43.3
2018-11-05T04:54:09.431Z,43.2
2018-11-05T04:54:59.203Z,43.2
2018-11-05T04:55:49.365Z,43.2
2018-11-05T04:56:39.126Z,43.2
2018-11-05T04:57:28.832Z,43.2
2018-11-05T04:58:19.991Z,43.1
2018-11-05T04:59:09.375Z,43.1
2018-11-05T04:59:59.033Z,43.1
2018-11-05T05:00:49.602Z,43.1
2018-11-05T05:01:39.086Z,43.1
2018-11-05T05:02:29.155Z,43.1
2018-11-05T05:03:19.705Z,43.1
2018-11-05T05:04:09.797Z,43.1
2018-11-05T05:04:59.928Z,43.1
2018-11-05T05:05:50.332Z,43.1
2018-11-05T05:06:40.023Z,43.1
2018-11-05T05:07:29.419Z,43.1
2018-11-05T05:08:19.412Z,43.1
2018-11-05T05:09:09.981Z,43.1
2018-11-05T05:10:00.020Z,43.1
2018-11-05T05:10:49.620Z,43.1
2018-11-05T05:11:39.524Z,43.1
2018-11-05T05:12:30.580Z,43.1
2018-11-05T05:13:21.347Z,43.1
2018-11-05T05:14:10.619Z,43.1
2018-11-05T05:15:00.347Z,43.1
2018-11-05T05:15:50.131Z,43.1
2018-11-05T05:16:40.492Z,43.1
2018-11-05T05:17:30.811Z,43.1
2018-11-05T05:18:20.846Z,43.1
2018-11-05T05:19:11.474Z,43
2018-11-05T05:20:00.686Z,43
2018-11-05T05:20:51.014Z,43
2018-11-05T05:21:41.197Z,43
2018-11-05T05:22:31.131Z,43
2018-11-05T05:23:20.573Z,43
2018-11-05T05:24:10.978Z,43
2018-11-05T05:25:02.159Z,43
2018-11-05T05:25:51.309Z,43
2018-11-05T05:26:41.461Z,43
2018-11-05T05:27:31.341Z,43
2018-11-05T05:28:21.311Z,43
2018-11-05T05:29:11.606Z,43
2018-11-05T05:30:01.228Z,42.9
2018-11-05T05:30:52.091Z,42.9
2018-11-05T05:31:41.581Z,42.9
2018-11-05T05:32:31.639Z,42.9
2018-11-05T05:33:21.453Z,42.9
2018-11-05T05:34:11.865Z,42.9
2018-11-05T05:35:02.393Z,42.9
2018-11-05T05:35:51.585Z,42.9
2018-11-05T05:36:41.541Z,42.9
2018-11-05T05:37:31.518Z,42.9
2018-11-05T05:38:22.054Z,42.9
2018-11-05T05:39:12.715Z,42.9
2018-11-05T05:40:02.240Z,42.9
2018-11-05T05:40:53.192Z,42.9
2018-11-05T05:41:41.997Z,42.9
2018-11-05T05:42:32.638Z,42.9
2018-11-05T05:43:22.555Z,42.9
2018-11-05T05:44:13.045Z,42.9
2018-11-05T05:45:03.054Z,42.9
2018-11-05T05:45:52.289Z,42.9
2018-11-05T05:46:42.365Z,42.9
2018-11-05T05:47:32.982Z,42.9
2018-11-05T05:48:23.347Z,42.9
2018-11-05T05:49:13.258Z,42.9
2018-11-05T05:50:03.751Z,42.9
2018-11-05T05:50:53.229Z,42.8
2018-11-05T05:51:43.309Z,42.8
2018-11-05T05:52:33.657Z,42.8
2018-11-05T05:53:23.437Z,42.8
2018-11-05T05:54:13.012Z,42.8
2018-11-05T05:55:04.084Z,42.8
2018-11-05T05:55:54.170Z,42.8
2018-11-05T05:56:42.967Z,42.8
2018-11-05T05:57:33.446Z,42.8
2018-11-05T05:58:23.859Z,42.8
2018-11-05T05:59:13.051Z,42.8
2018-11-05T06:00:05.761Z,42.8
2018-11-05T06:00:53.199Z,42.8
2018-11-05T06:01:43.434Z,42.8
2018-11-05T06:02:33.399Z,42.8
2018-11-05T06:03:23.843Z,42.8
2018-11-05T06:04:14.518Z,42.8
2018-11-05T06:05:03.896Z,42.8
2018-11-05T06:05:54.295Z,42.8
2018-11-05T06:06:44.402Z,42.8
2018-11-05T06:07:34.175Z,42.8
2018-11-05T06:08:23.546Z,42.8
2018-11-05T06:09:13.956Z,42.8
2018-11-05T06:10:04.422Z,42.8
2018-11-05T06:10:54.678Z,42.8
2018-11-05T06:11:43.993Z,42.7
2018-11-05T06:12:35.079Z,42.8
2018-11-05T06:13:24.416Z,42.7
2018-11-05T06:14:14.636Z,42.7
2018-11-05T06:15:04.410Z,42.7
2018-11-05T06:15:56.098Z,42.7
2018-11-05T06:16:43.979Z,42.7
2018-11-05T06:17:34.889Z,42.7
2018-11-05T06:18:25.046Z,42.7
2018-11-05T06:19:14.611Z,42.7
2018-11-05T06:20:05.266Z,42.6
2018-11-05T06:20:55.270Z,42.6
2018-11-05T06:21:46.858Z,42.6
2018-11-05T06:22:35.238Z,42.6
2018-11-05T06:23:24.385Z,42.6
2018-11-05T06:24:14.709Z,42.6
2018-11-05T06:25:05.128Z,42.6
2018-11-05T06:25:55.998Z,42.6
2018-11-05T06:26:45.156Z,42.6
2018-11-05T06:27:35.417Z,42.6
2018-11-05T06:28:25.849Z,42.6
2018-11-05T06:29:15.700Z,42.6
2018-11-05T06:30:06.058Z,42.6
2018-11-05T06:30:55.661Z,42.6
2018-11-05T06:31:46.822Z,42.6
2018-11-05T06:32:36.241Z,42.6
2018-11-05T06:33:26.337Z,42.6
2018-11-05T06:34:15.797Z,42.6
2018-11-05T06:35:06.060Z,42.6
2018-11-05T06:35:55.797Z,42.6
2018-11-05T06:36:47.324Z,42.6
2018-11-05T06:37:36.133Z,42.6
2018-11-05T06:38:26.462Z,42.6
2018-11-05T06:39:16.470Z,42.6
2018-11-05T06:40:05.932Z,42.6
2018-11-05T06:40:57.162Z,42.6
2018-11-05T06:41:47.505Z,42.6
2018-11-05T06:42:36.470Z,42.6
2018-11-05T06:43:27.054Z,42.5
2018-11-05T06:44:18.184Z,42.5
2018-11-05T06:45:06.965Z,42.5
2018-11-05T06:45:56.847Z,42.5
2018-11-05T06:46:46.954Z,42.5
2018-11-05T06:47:37.432Z,42.5
2018-11-05T06:48:27.103Z,42.5
2018-11-05T06:49:17.295Z,42.5
2018-11-05T06:50:06.941Z,42.5
2018-11-05T06:50:57.548Z,42.5
2018-11-05T06:51:46.866Z,42.5
2018-11-05T06:52:37.628Z,42.5
2018-11-05T06:53:27.119Z,42.4
2018-11-05T06:54:17.217Z,42.5
2018-11-05T06:55:07.913Z,42.5
2018-11-05T06:55:58.291Z,42.4
2018-11-05T06:56:47.431Z,42.4
2018-11-05T06:57:38.182Z,42.4
2018-11-05T06:58:28.791Z,42.4
2018-11-05T06:59:17.206Z,42.4
2018-11-05T07:00:07.466Z,42.4
2018-11-05T07:00:58.018Z,42.4
2018-11-05T07:01:48.375Z,42.4
2018-11-05T07:02:38.180Z,42.4
2018-11-05T07:03:27.636Z,42.4
2018-11-05T07:04:18.063Z,42.4
2018-11-05T07:05:07.549Z,42.4
2018-11-05T07:06:00.618Z,42.4
2018-11-05T07:06:48.194Z,42.4
2018-11-05T07:07:38.671Z,42.4
2018-11-05T07:08:28.396Z,42.4
2018-11-05T07:09:18.366Z,42.4
2018-11-05T07:10:08.500Z,42.4
2018-11-05T07:10:58.263Z,42.4
2018-11-05T07:11:48.824Z,42.4
2018-11-05T07:12:38.921Z,42.4
2018-11-05T07:13:29.325Z,42.4
2018-11-05T07:14:19.294Z,42.4
2018-11-05T07:15:08.844Z,42.4
2018-11-05T07:15:58.523Z,42.4
2018-11-05T07:16:49.465Z,42.3
2018-11-05T07:17:39.170Z,42.3
2018-11-05T07:18:31.482Z,42.3
2018-11-05T07:19:21.097Z,42.3
2018-11-05T07:20:09.146Z,42.3
2018-11-05T07:20:59.003Z,42.3
2018-11-05T07:21:48.531Z,42.3
2018-11-05T07:22:39.330Z,42.3
2018-11-05T07:23:29.726Z,42.3
2018-11-05T07:24:19.766Z,42.3
2018-11-05T07:25:10.058Z,42.3
2018-11-05T07:25:58.954Z,42.3
2018-11-05T07:26:49.943Z,42.3
2018-11-05T07:27:40.979Z,42.3
2018-11-05T07:28:30.083Z,42.3
2018-11-05T07:29:19.945Z,42.3
2018-11-05T07:30:10.180Z,42.3
2018-11-05T07:30:59.892Z,42.3
2018-11-05T07:31:49.858Z,42.3
2018-11-05T07:32:39.715Z,42.3
2018-11-05T07:33:31.523Z,42.3
2018-11-05T07:34:21.941Z,42.3
2018-11-05T07:35:09.608Z,42.3
2018-11-05T07:36:00.065Z,42.3
2018-11-05T07:36:50.625Z,42.2
2018-11-05T07:37:40.602Z,42.2
2018-11-05T07:38:30.822Z,42.2
2018-11-05T07:39:20.586Z,42.2
2018-11-05T07:40:10.858Z,42.2
2018-11-05T07:41:00.447Z,42.2
2018-11-05T07:41:50.692Z,42.2
2018-11-05T07:42:41.045Z,42.2
2018-11-05T07:43:31.947Z,42.2
2018-11-05T07:44:20.904Z,42.2
2018-11-05T07:45:11.207Z,42.2
2018-11-05T07:46:01.831Z,42.2
2018-11-05T07:46:50.749Z,42.2
2018-11-05T07:47:40.991Z,42.2
2018-11-05T07:48:31.437Z,42.1
2018-11-05T07:49:21.494Z,42.2
2018-11-05T07:50:12.687Z,42.1
2018-11-05T07:51:02.182Z,42.1
2018-11-05T07:51:51.224Z,42.1
2018-11-05T07:52:42.304Z,42.1
2018-11-05T07:53:31.099Z,42.1
2018-11-05T07:54:22.425Z,42.1
2018-11-05T07:55:11.674Z,42.1
2018-11-05T07:56:02.259Z,42.1
2018-11-05T07:56:53.646Z,42.1
2018-11-05T07:57:42.099Z,42.1
2018-11-05T07:58:32.441Z,42.1
2018-11-05T07:59:21.450Z,42.1
2018-11-05T08:00:12.591Z,42.1
2018-11-05T08:01:01.867Z,42.1
2018-11-05T08:01:52.153Z,42.1
2018-11-05T08:02:42.762Z,42.1
2018-11-05T08:03:32.248Z,42.1
2018-11-05T08:04:23.244Z,42.1
2018-11-05T08:05:12.622Z,42.1
2018-11-05T08:06:01.953Z,42.1
2018-11-05T08:06:53.123Z,42.1
2018-11-05T08:07:43.458Z,42.1
2018-11-05T08:08:34.889Z,42.1
2018-11-05T08:09:23.793Z,42.1
2018-11-05T08:10:13.038Z,42.1
2018-11-05T08:11:03.483Z,42.1
2018-11-05T08:11:53.251Z,42
2018-11-05T08:12:43.225Z,42
2018-11-05T08:13:32.957Z,42.1
2018-11-05T08:14:25.428Z,42
2018-11-05T08:15:13.198Z,42
2018-11-05T08:16:03.211Z,42
2018-11-05T08:16:53.130Z,42
2018-11-05T08:17:42.979Z,42
2018-11-05T08:18:33.580Z,42
2018-11-05T08:19:23.997Z,42
2018-11-05T08:20:14.085Z,41.9
2018-11-05T08:21:04.102Z,42
2018-11-05T08:21:53.572Z,41.9
2018-11-05T08:22:43.052Z,41.9
2018-11-05T08:23:34.316Z,42
2018-11-05T08:24:23.650Z,41.9
2018-11-05T08:25:13.552Z,41.9
2018-11-05T08:26:05.026Z,41.9
2018-11-05T08:26:54.787Z,41.9
2018-11-05T08:27:44.589Z,41.9
2018-11-05T08:28:34.067Z,41.9
2018-11-05T08:29:24.101Z,41.9
2018-11-05T08:30:14.077Z,41.9
2018-11-05T08:31:04.504Z,41.9
2018-11-05T08:31:54.839Z,41.9
2018-11-05T08:32:44.929Z,41.9
2018-11-05T08:33:34.319Z,41.9
2018-11-05T08:34:24.257Z,41.9
2018-11-05T08:35:14.361Z,41.9
2018-11-05T08:36:04.699Z,41.9
2018-11-05T08:36:54.959Z,41.9
2018-11-05T08:37:45.057Z,41.9
2018-11-05T08:38:35.062Z,42
2018-11-05T08:39:25.213Z,42
2018-11-05T08:40:16.702Z,42.1
2018-11-05T08:41:05.354Z,42.1
2018-11-05T08:41:55.041Z,42.2
2018-11-05T08:42:45.370Z,42.3
2018-11-05T08:43:34.984Z,42.4
2018-11-05T08:44:24.846Z,42.5
2018-11-05T08:45:15.519Z,42.6
2018-11-05T08:46:05.135Z,42.8
2018-11-05T08:46:56.463Z,42.8
2018-11-05T08:47:45.363Z,42.9
2018-11-05T08:48:35.233Z,42.9
2018-11-05T08:49:25.918Z,43.1
2018-11-05T08:50:17.183Z,43.2
2018-11-05T08:51:10.716Z,43.3
2018-11-05T08:51:56.307Z,43.4
2018-11-05T09:08:38.810Z,45.3
2018-11-05T09:09:29.771Z,45.5
2018-11-05T09:10:21.242Z,45.6
2018-11-05T09:11:11.909Z,45.8
2018-11-05T09:11:59.861Z,45.8
2018-11-05T09:12:50.495Z,45.9
2018-11-05T09:13:40.434Z,46
2018-11-05T09:14:29.712Z,46.1
2018-11-05T09:15:20.048Z,46.3
2018-11-05T09:16:10.506Z,46.4
2018-11-05T09:17:00.190Z,46.5
2018-11-05T09:17:50.030Z,46.6
2018-11-05T09:18:39.816Z,46.7
2018-11-05T09:19:30.172Z,46.8
2018-11-05T09:20:20.434Z,46.9
2018-11-05T09:21:10.099Z,46.9
2018-11-05T09:21:59.828Z,47
2018-11-05T09:22:50.605Z,47.2
2018-11-05T09:23:40.690Z,47.3
2018-11-05T09:24:30.517Z,47.4
2018-11-05T09:25:20.827Z,47.6
2018-11-05T09:26:10.108Z,47.6
2018-11-05T09:27:00.125Z,47.8
2018-11-05T09:27:51.546Z,47.8
2018-11-05T09:28:41.100Z,48
2018-11-05T09:29:30.696Z,48.1
2018-11-05T09:30:20.959Z,48.2
2018-11-05T09:31:11.310Z,48.3
2018-11-05T09:32:01.293Z,48.3
2018-11-05T09:32:51.120Z,48.4
2018-11-05T09:33:40.332Z,48.5
2018-11-05T09:34:31.211Z,48.6
2018-11-05T09:35:21.300Z,48.7
2018-11-05T09:36:11.403Z,48.8
2018-11-05T09:37:01.141Z,48.9
2018-11-05T09:37:51.408Z,49.1
2018-11-05T09:38:41.573Z,49.2
2018-11-05T09:39:30.973Z,49.3
2018-11-05T09:40:20.885Z,49.4
2018-11-05T09:41:11.778Z,49.4
2018-11-05T09:42:01.970Z,49.6
2018-11-05T09:42:53.369Z,49.7
2018-11-05T09:43:40.973Z,49.8
2018-11-05T09:44:31.888Z,49.9
2018-11-05T09:45:21.684Z,50
2018-11-05T09:46:12.073Z,50.1
2018-11-05T09:47:01.483Z,50.2
2018-11-05T09:47:52.715Z,50.3
2018-11-05T09:48:42.456Z,50.3
2018-11-05T09:49:32.728Z,50.4
2018-11-05T09:50:22.807Z,50.6
2018-11-05T09:51:12.367Z,50.7
2018-11-05T09:52:01.979Z,50.8
2018-11-05T09:52:52.772Z,50.9
2018-11-05T09:53:42.780Z,51
2018-11-05T09:54:33.212Z,51.1
2018-11-05T09:55:23.604Z,51.3
2018-11-05T09:56:13.108Z,51.4
2018-11-05T09:57:03.117Z,51.4
2018-11-05T09:57:52.835Z,51.6
2018-11-05T09:58:43.217Z,51.6
2018-11-05T09:59:33.565Z,51.8
2018-11-05T10:00:23.315Z,51.8
2018-11-05T10:02:02.599Z,52
2018-11-05T10:02:55.274Z,52.1
2018-11-05T10:03:45.688Z,52.2
2018-11-05T10:04:37.305Z,52.3
2018-11-05T10:06:13.197Z,52.5
2018-11-05T10:07:04.160Z,52.6
2018-11-05T10:07:54.171Z,52.7
2018-11-05T10:08:43.682Z,52.8
2018-11-05T10:09:34.451Z,52.9
2018-11-05T10:10:26.426Z,53
2018-11-05T10:11:14.151Z,53.1
2018-11-05T10:12:04.761Z,53.2
2018-11-05T10:12:54.273Z,53.3
2018-11-05T10:13:44.543Z,53.4
2018-11-05T10:14:33.878Z,53.4
2018-11-05T10:15:24.981Z,53.5
2018-11-05T10:16:13.943Z,53.6
2018-11-05T10:17:04.448Z,53.6
2018-11-05T10:17:55.036Z,53.8
2018-11-05T10:18:44.501Z,53.9
2018-11-05T10:19:34.136Z,54
2018-11-05T10:20:23.698Z,54.1
2018-11-05T10:21:14.671Z,54.1
2018-11-05T10:22:04.374Z,54.3
2018-11-05T10:22:54.639Z,54.4
2018-11-05T10:23:44.803Z,54.4
2018-11-05T10:24:36.095Z,54.4
2018-11-05T10:25:24.283Z,54.6
2018-11-05T10:26:14.767Z,54.7
2018-11-05T10:27:04.970Z,54.8
2018-11-05T10:27:54.850Z,54.9
2018-11-05T10:28:44.125Z,54.9
2018-11-05T10:29:34.882Z,55.1
2018-11-05T10:30:25.799Z,55.2
2018-11-05T10:31:14.887Z,55.3
2018-11-05T10:32:05.400Z,55.4
2018-11-05T10:32:55.627Z,55.4
2018-11-05T10:33:46.077Z,55.5
2018-11-05T10:34:35.431Z,55.6
2018-11-05T10:35:24.597Z,55.7
2018-11-05T10:36:15.205Z,55.8
2018-11-05T10:37:05.459Z,55.9
2018-11-05T10:37:55.319Z,55.9
2018-11-05T10:38:46.204Z,56.1
2018-11-05T10:39:35.595Z,56.1
2018-11-05T10:40:26.388Z,56.2
2018-11-05T10:41:16.105Z,56.3
2018-11-05T10:42:06.162Z,56.4
2018-11-05T10:42:55.329Z,56.5
2018-11-05T10:43:46.762Z,56.6
2018-11-05T10:44:36.597Z,56.6
2018-11-05T10:45:26.387Z,56.7
2018-11-05T10:46:17.949Z,56.8
2018-11-05T10:47:05.849Z,56.9
2018-11-05T10:47:56.902Z,56.9
2018-11-05T10:48:46.064Z,57.1
2018-11-05T10:49:36.924Z,57.1
2018-11-05T10:50:28.051Z,57.2
2018-11-05T10:51:17.421Z,57.3
2018-11-05T10:52:11.331Z,57.4
2018-11-05T10:52:57.159Z,57.4
2018-11-05T10:53:47.863Z,57.6
2018-11-05T10:54:37.820Z,57.6
2018-11-05T10:55:27.133Z,57.6
2018-11-05T10:57:08.326Z,57.8
2018-11-05T10:57:58.164Z,57.9
2018-11-05T10:58:47.373Z,57.9
2018-11-05T10:59:37.664Z,58
2018-11-05T11:00:27.183Z,58.1
2018-11-05T11:01:17.723Z,58.1
2018-11-05T11:02:08.086Z,58.2
2018-11-05T11:02:58.195Z,58.3
2018-11-05T11:03:48.539Z,58.4
2018-11-05T11:04:37.896Z,58.5
2018-11-05T11:06:18.170Z,58.6
2018-11-05T11:07:08.165Z,58.7
2018-11-05T11:07:57.970Z,58.7
2018-11-05T11:08:48.339Z,58.8
2018-11-05T11:09:39.335Z,58.8
2018-11-05T11:10:28.385Z,58.9
2018-11-05T11:11:17.798Z,59
2018-11-05T11:12:08.285Z,59.1
2018-11-05T11:12:58.666Z,59.1
2018-11-05T11:13:48.653Z,59.1
2018-11-05T11:14:38.877Z,59.3
2018-11-05T11:15:28.943Z,59.3
2018-11-05T11:16:18.590Z,59.4
2018-11-05T11:17:08.945Z,59.4
2018-11-05T11:17:58.412Z,59.6
2018-11-05T11:18:49.078Z,59.6
2018-11-05T11:19:38.056Z,59.8
2018-11-05T11:20:29.212Z,59.8
2018-11-05T11:21:19.207Z,59.9
2018-11-05T11:22:09.337Z,59.9
2018-11-05T11:22:58.005Z,59.9
2018-11-05T11:23:49.909Z,60
2018-11-05T11:24:39.442Z,60.1
2018-11-05T11:25:28.912Z,60.1
2018-11-05T11:26:19.140Z,60.2
2018-11-05T11:27:09.262Z,60.3
2018-11-05T11:28:03.068Z,60.3
2018-11-05T11:28:50.640Z,60.4
2018-11-05T11:29:39.638Z,60.4
2018-11-05T11:30:29.604Z,60.5
2018-11-05T11:31:19.374Z,60.6
2018-11-05T11:32:09.731Z,60.6
2018-11-05T11:32:59.134Z,60.7
2018-11-05T11:33:49.569Z,60.8
2018-11-05T11:34:39.924Z,60.8
2018-11-05T11:35:29.411Z,60.8
2018-11-05T11:36:21.151Z,60.9
2018-11-05T11:37:10.388Z,61.1
2018-11-05T11:37:59.627Z,61.1
2018-11-05T11:38:50.802Z,61.1
2018-11-05T11:39:40.591Z,61.1
2018-11-05T11:40:30.901Z,61.1
2018-11-05T11:41:20.973Z,61.2
2018-11-05T11:42:09.787Z,61.3
2018-11-05T11:43:00.618Z,61.3
2018-11-05T11:43:51.168Z,61.3
2018-11-05T11:44:41.054Z,61.4
2018-11-05T11:45:30.735Z,61.4
2018-11-05T11:46:19.981Z,61.5
2018-11-05T11:47:10.643Z,61.5
2018-11-05T11:48:01.561Z,61.6
2018-11-05T11:48:51.540Z,61.6
2018-11-05T11:49:41.099Z,61.7
2018-11-05T11:50:31.676Z,61.8
2018-11-05T11:51:21.413Z,61.8
2018-11-05T11:52:11.710Z,61.9
2018-11-05T11:53:01.472Z,61.9
2018-11-05T11:53:51.337Z,61.9
2018-11-05T11:54:41.990Z,62
2018-11-05T11:55:31.455Z,62
2018-11-05T11:56:21.068Z,62.1
2018-11-05T11:57:11.967Z,62.1
2018-11-05T11:58:01.638Z,62.1
2018-11-05T11:58:52.297Z,62.1
2018-11-05T11:59:42.076Z,62.2
2018-11-05T12:00:31.889Z,62.2
2018-11-05T12:01:22.202Z,62.3
2018-11-05T12:02:13.320Z,62.3
2018-11-05T12:03:01.792Z,62.4